createdAt,value
2024-02-07T00:02:13.605Z,88.17
2024-02-07T00:04:42.001Z,88.14
2024-02-07T00:07:10.197Z,88.14
2024-02-07T00:09:38.184Z,88.12
2024-02-07T00:12:06.303Z,88.23
2024-02-07T00:14:34.281Z,88.22
2024-02-07T00:17:02.357Z,88.25
2024-02-07T00:19:30.397Z,88.38
2024-02-07T00:21:58.366Z,88.33
2024-02-07T00:24:26.378Z,88.50
2024-02-07T00:26:54.319Z,88.47
2024-02-07T00:29:22.235Z,88.43
2024-02-07T00:31:50.222Z,88.47
2024-02-07T00:34:18.270Z,88.51
2024-02-07T00:36:46.255Z,88.38
2024-02-07T00:39:14.181Z,87.98
2024-02-07T00:41:42.245Z,87.93
2024-02-07T00:44:10.266Z,87.97
2024-02-07T00:46:39.400Z,88.08
2024-02-07T00:49:13.578Z,88.29
2024-02-07T00:54:55.385Z,88.08
2024-02-07T00:57:24.326Z,88.07
2024-02-07T00:59:53.124Z,88.07
2024-02-07T01:02:21.969Z,88.11
2024-02-07T01:04:51.544Z,88.11
2024-02-07T01:07:19.810Z,88.15
2024-02-07T01:09:48.052Z,88.02
2024-02-07T01:12:16.041Z,88.12
2024-02-07T01:14:44.034Z,88.08
2024-02-07T01:17:12.145Z,87.94
2024-02-07T01:19:40.223Z,87.89
2024-02-07T01:22:08.175Z,88.00
2024-02-07T01:24:36.138Z,87.79
2024-02-07T01:27:05.572Z,88.12
2024-02-07T01:29:35.196Z,87.99
2024-02-07T01:32:03.394Z,88.06
2024-02-07T01:34:31.543Z,88.04
2024-02-07T01:36:59.973Z,88.00
2024-02-07T01:39:28.060Z,87.76
2024-02-07T01:41:58.722Z,87.93
2024-02-07T01:44:29.074Z,87.85
2024-02-07T01:47:14.523Z,87.84
2024-02-07T01:49:52.400Z,87.86
2024-02-07T01:52:24.819Z,87.87
2024-02-07T01:54:54.591Z,87.77
2024-02-07T01:57:23.134Z,87.60
2024-02-07T01:59:51.354Z,87.83
2024-02-07T02:02:20.456Z,87.81
2024-02-07T02:04:48.499Z,88.17
2024-02-07T02:07:17.624Z,88.20
2024-02-07T02:09:46.857Z,87.97
2024-02-07T02:12:15.260Z,88.12
2024-02-07T02:14:44.906Z,88.14
2024-02-07T02:17:12.913Z,88.30
2024-02-07T02:19:46.752Z,88.25
2024-02-07T02:22:34.575Z,88.12
2024-02-07T02:25:24.054Z,88.09
2024-02-07T02:28:08.714Z,88.02
2024-02-07T02:30:48.346Z,88.02
2024-02-07T02:33:19.722Z,87.95
2024-02-07T02:35:48.580Z,87.99
2024-02-07T02:38:17.185Z,87.85
2024-02-07T02:40:45.322Z,87.62
2024-02-07T02:43:13.517Z,87.76
2024-02-07T02:45:42.345Z,87.86
2024-02-07T02:48:13.677Z,87.61
2024-02-07T02:50:42.205Z,87.66
2024-02-07T02:53:10.214Z,87.58
2024-02-07T02:55:39.284Z,87.48
2024-02-07T02:58:07.422Z,87.37
2024-02-07T03:00:35.854Z,87.52
2024-02-07T03:03:04.125Z,87.53
2024-02-07T03:05:41.005Z,87.36
2024-02-07T03:08:12.416Z,87.38
2024-02-07T03:10:40.528Z,87.44
2024-02-07T03:23:19.280Z,87.29
2024-02-07T03:25:46.227Z,87.44
2024-02-07T03:28:15.818Z,87.56
2024-02-07T03:30:42.607Z,87.50
2024-02-07T03:33:09.297Z,87.47
2024-02-07T03:35:36.475Z,87.38
2024-02-07T03:38:03.508Z,87.13
2024-02-07T03:40:30.546Z,87.31
2024-02-07T03:42:59.213Z,87.23
2024-02-07T03:45:26.223Z,87.25
2024-02-07T03:47:53.186Z,87.53
2024-02-07T03:50:25.789Z,87.43
2024-02-07T03:52:52.595Z,87.41
2024-02-07T03:55:19.788Z,87.38
2024-02-07T03:57:48.579Z,87.40
2024-02-07T04:00:17.594Z,87.37
2024-02-07T04:02:48.903Z,87.49
2024-02-07T04:05:19.830Z,87.52
2024-02-07T04:07:47.016Z,87.51
2024-02-07T04:10:14.453Z,87.41
2024-02-07T04:12:41.435Z,87.59
2024-02-07T04:15:27.220Z,87.62
2024-02-07T04:18:19.784Z,87.85
2024-02-07T04:21:10.194Z,87.96
2024-02-07T04:23:56.690Z,87.79
2024-02-07T04:26:43.126Z,87.72
2024-02-07T04:29:28.587Z,87.73
2024-02-07T04:32:13.717Z,87.97
2024-02-07T04:35:01.429Z,88.22
2024-02-07T04:37:47.237Z,88.30
2024-02-07T04:40:32.615Z,88.41
2024-02-07T04:43:18.008Z,88.36
2024-02-07T04:46:03.237Z,88.56
2024-02-07T04:48:48.812Z,88.56
2024-02-07T04:51:34.101Z,88.43
2024-02-07T04:54:19.379Z,88.45
2024-02-07T04:57:04.677Z,88.54
2024-02-07T04:59:49.792Z,88.42
2024-02-07T05:02:35.090Z,88.59
2024-02-07T05:05:20.319Z,88.68
2024-02-07T05:08:05.770Z,88.83
2024-02-07T05:10:50.960Z,88.66
2024-02-07T05:13:36.374Z,88.65
2024-02-07T05:16:03.325Z,88.65
2024-02-07T05:18:30.190Z,88.68
2024-02-07T05:20:56.980Z,88.79
2024-02-07T05:23:23.832Z,89.01
2024-02-07T05:25:50.735Z,89.11
2024-02-07T05:28:18.269Z,89.24
2024-02-07T05:30:45.008Z,89.21
2024-02-07T05:33:11.769Z,89.29
2024-02-07T05:35:38.698Z,89.23
2024-02-07T05:38:05.768Z,88.98
2024-02-07T05:40:32.458Z,88.77
2024-02-07T05:42:59.805Z,88.55
2024-02-07T05:45:26.781Z,88.66
2024-02-07T05:47:53.504Z,88.77
2024-02-07T05:50:20.155Z,88.68
2024-02-07T05:52:47.204Z,88.88
2024-02-07T05:55:14.257Z,88.97
2024-02-07T05:57:41.254Z,89.04
2024-02-07T06:00:09.771Z,88.98
2024-02-07T06:02:39.136Z,88.85
2024-02-07T06:05:06.001Z,88.91
2024-02-07T06:07:36.894Z,89.00
2024-02-07T06:10:03.934Z,88.80
2024-02-07T06:12:31.910Z,88.84
2024-02-07T06:15:01.623Z,88.80
2024-02-07T06:17:29.492Z,88.92
2024-02-07T06:19:57.133Z,88.70
2024-02-07T06:22:23.974Z,88.79
2024-02-07T06:24:51.312Z,88.75
2024-02-07T06:27:18.091Z,88.61
2024-02-07T06:29:45.428Z,88.67
2024-02-07T06:32:12.177Z,88.62
2024-02-07T06:34:38.913Z,88.49
2024-02-07T06:37:05.754Z,88.52
2024-02-07T06:39:33.527Z,88.37
2024-02-07T06:42:00.200Z,88.40
2024-02-07T06:44:26.841Z,88.12
2024-02-07T06:46:53.574Z,88.36
2024-02-07T06:49:20.428Z,88.36
2024-02-07T06:51:47.730Z,88.42
2024-02-07T06:54:14.581Z,88.32
2024-02-07T06:56:41.483Z,88.35
2024-02-07T06:59:11.759Z,88.43
2024-02-07T07:01:40.880Z,88.17
2024-02-07T07:04:07.694Z,88.25
2024-02-07T07:06:34.543Z,88.06
2024-02-07T07:09:01.427Z,88.00
2024-02-07T07:11:28.922Z,88.09
2024-02-07T07:13:59.210Z,88.19
2024-02-07T07:16:28.137Z,87.97
2024-02-07T07:18:57.107Z,87.99
2024-02-07T07:21:23.805Z,87.81
2024-02-07T07:23:50.926Z,87.51
2024-02-07T07:26:17.787Z,87.19
2024-02-07T07:28:44.611Z,87.08
2024-02-07T07:31:11.415Z,87.22
2024-02-07T07:33:38.163Z,87.00
2024-02-07T07:36:05.274Z,87.31
2024-02-07T07:38:32.021Z,87.41
2024-02-07T07:40:59.003Z,87.60
2024-02-07T07:43:25.916Z,87.95
2024-02-07T07:45:53.156Z,88.32
2024-02-07T07:48:23.846Z,88.42
2024-02-07T07:50:52.201Z,88.43
2024-02-07T07:53:19.043Z,88.57
2024-02-07T07:55:45.885Z,88.89
2024-02-07T07:58:13.409Z,89.20
2024-02-07T08:00:40.205Z,89.36
2024-02-07T08:03:07.469Z,89.36
2024-02-07T08:05:35.725Z,89.46
2024-02-07T08:08:04.318Z,89.75
2024-02-07T08:10:31.076Z,90.08
2024-02-07T08:12:57.779Z,90.05
2024-02-07T08:15:24.462Z,90.08
2024-02-07T08:17:51.482Z,89.96
2024-02-07T08:20:22.662Z,90.00
2024-02-07T08:22:49.523Z,90.17
2024-02-07T08:25:16.535Z,90.27
2024-02-07T08:27:43.292Z,90.31
2024-02-07T08:30:10.475Z,90.71
2024-02-07T08:32:37.254Z,90.94
2024-02-07T08:35:04.615Z,91.42
2024-02-07T08:37:31.508Z,91.72
2024-02-07T08:39:58.363Z,91.60
2024-02-07T08:42:25.175Z,91.72
2024-02-07T08:44:51.918Z,91.69
2024-02-07T08:47:18.647Z,92.07
2024-02-07T08:49:45.482Z,92.10
2024-02-07T08:52:12.285Z,92.21
2024-02-07T08:54:39.988Z,92.08
2024-02-07T08:57:06.694Z,92.11
2024-02-07T08:59:33.512Z,92.07
2024-02-07T09:02:00.295Z,92.09
2024-02-07T09:04:27.243Z,92.03
2024-02-07T09:06:53.945Z,92.08
2024-02-07T09:09:20.639Z,92.02
2024-02-07T09:11:47.343Z,92.16
2024-02-07T09:14:13.993Z,92.01
2024-02-07T09:16:40.912Z,92.02
2024-02-07T09:19:07.799Z,92.03
2024-02-07T09:21:35.992Z,91.79
2024-02-07T09:24:04.874Z,91.38
2024-02-07T09:26:31.992Z,91.59
2024-02-07T09:28:59.724Z,91.62
2024-02-07T09:31:26.683Z,91.25
2024-02-07T09:33:53.852Z,91.35
2024-02-07T09:36:20.875Z,91.39
2024-02-07T09:38:47.655Z,91.38
2024-02-07T09:41:18.479Z,91.04
2024-02-07T09:43:47.401Z,91.24
2024-02-07T09:46:18.825Z,91.59
2024-02-07T09:48:45.991Z,91.94
2024-02-07T09:51:15.616Z,92.45
2024-02-07T09:53:43.530Z,92.88
2024-02-07T09:56:11.380Z,93.53
2024-02-07T09:58:39.041Z,93.93
2024-02-07T10:01:09.770Z,94.44
2024-02-07T10:03:40.594Z,94.57
2024-02-07T10:06:09.216Z,94.52
2024-02-07T10:08:36.674Z,94.75
2024-02-07T10:11:08.367Z,94.29
2024-02-07T10:13:35.322Z,94.01
2024-02-07T10:16:06.555Z,93.57
2024-02-07T10:18:34.199Z,93.29
2024-02-07T10:21:02.535Z,93.43
2024-02-07T10:23:29.431Z,93.03
2024-02-07T10:25:57.113Z,92.61
2024-02-07T10:28:25.515Z,92.58
2024-02-07T10:31:02.922Z,92.23
2024-02-07T10:33:44.712Z,92.17
2024-02-07T10:36:13.232Z,91.11
2024-02-07T10:38:41.137Z,90.88
2024-02-07T10:41:08.261Z,90.44
2024-02-07T10:43:38.324Z,89.92
2024-02-07T10:46:11.045Z,89.59
2024-02-07T10:48:39.478Z,89.71
2024-02-07T10:51:06.660Z,89.50
2024-02-07T10:53:34.254Z,89.66
2024-02-07T10:56:05.354Z,89.46
2024-02-07T10:58:33.221Z,88.81
2024-02-07T11:01:00.771Z,88.75
2024-02-07T11:03:31.513Z,88.24
2024-02-07T11:05:59.194Z,88.37
2024-02-07T11:08:28.491Z,88.50
2024-02-07T11:10:57.384Z,88.59
2024-02-07T11:13:24.757Z,88.32
2024-02-07T11:15:51.540Z,88.09
2024-02-07T11:18:18.564Z,88.04
2024-02-07T11:20:47.553Z,88.14
2024-02-07T11:23:25.249Z,88.04
2024-02-07T11:25:53.630Z,87.48
2024-02-07T11:28:20.716Z,87.66
2024-02-07T11:30:49.814Z,87.63
2024-02-07T11:33:16.674Z,87.67
2024-02-07T11:35:43.649Z,87.76
2024-02-07T11:38:11.866Z,87.08
2024-02-07T11:40:40.249Z,87.49
2024-02-07T11:43:11.142Z,87.35
2024-02-07T11:45:38.521Z,87.22
2024-02-07T11:48:24.607Z,86.79
2024-02-07T11:50:53.497Z,87.06
2024-02-07T11:53:27.151Z,87.31
2024-02-07T11:55:54.067Z,87.94
2024-02-07T11:58:23.420Z,88.22
2024-02-07T12:00:50.682Z,88.73
2024-02-07T12:03:18.581Z,88.49
2024-02-07T12:05:46.510Z,88.86
2024-02-07T12:08:16.397Z,88.87
2024-02-07T12:10:43.305Z,88.74
2024-02-07T12:13:11.623Z,88.72
2024-02-07T12:15:38.783Z,88.51
2024-02-07T12:18:05.789Z,87.98
2024-02-07T12:20:32.804Z,88.17
2024-02-07T12:23:01.043Z,88.28
2024-02-07T12:25:28.748Z,87.84
2024-02-07T12:27:55.792Z,87.69
2024-02-07T12:30:22.559Z,87.74
2024-02-07T12:32:49.855Z,88.01
2024-02-07T12:35:18.826Z,87.78
2024-02-07T12:37:47.819Z,87.68
2024-02-07T12:40:15.209Z,87.87
2024-02-07T12:42:42.287Z,87.80
2024-02-07T12:45:13.967Z,87.90
2024-02-07T12:47:41.764Z,87.85
2024-02-07T12:50:09.158Z,88.04
2024-02-07T12:52:35.998Z,88.17
2024-02-07T12:55:02.791Z,87.86
2024-02-07T12:57:31.072Z,88.11
2024-02-07T13:00:09.739Z,88.37
2024-02-07T13:02:37.099Z,88.21
2024-02-07T13:05:04.225Z,88.25
2024-02-07T13:07:31.151Z,88.63
2024-02-07T13:09:58.063Z,88.84
2024-02-07T13:12:30.317Z,88.71
2024-02-07T13:14:59.109Z,88.71
2024-02-07T13:17:25.949Z,88.77
2024-02-07T13:19:52.757Z,88.94
2024-02-07T13:22:19.591Z,88.87
2024-02-07T13:24:46.551Z,88.69
2024-02-07T13:27:13.282Z,88.56
2024-02-07T13:29:41.892Z,88.79
2024-02-07T13:32:13.726Z,88.83
2024-02-07T13:34:45.851Z,88.69
2024-02-07T13:37:12.911Z,88.96
2024-02-07T13:39:39.678Z,88.99
2024-02-07T13:42:06.836Z,89.04
2024-02-07T13:44:33.797Z,89.00
2024-02-07T13:47:01.913Z,89.04
2024-02-07T13:49:28.911Z,89.10
2024-02-07T13:51:56.032Z,89.21
2024-02-07T13:54:22.808Z,89.23
2024-02-07T13:56:49.592Z,89.48
2024-02-07T13:59:16.980Z,89.64
2024-02-07T14:01:44.273Z,89.60
2024-02-07T14:04:11.225Z,90.04
2024-02-07T14:06:38.378Z,90.69
2024-02-07T14:09:05.693Z,91.54
2024-02-07T14:11:32.630Z,92.37
2024-02-07T14:13:59.742Z,93.29
2024-02-07T14:16:26.748Z,93.50
2024-02-07T14:18:53.527Z,93.97
2024-02-07T14:21:20.352Z,94.00
2024-02-07T14:23:47.479Z,94.57
2024-02-07T14:26:14.290Z,95.02
2024-02-07T14:28:41.663Z,96.26
2024-02-07T14:31:08.434Z,96.46
2024-02-07T14:33:37.279Z,96.92
2024-02-07T14:36:05.140Z,97.11
2024-02-07T14:38:37.898Z,97.79
2024-02-07T14:41:06.316Z,98.14
2024-02-07T14:43:33.553Z,98.48
2024-02-07T14:46:00.416Z,98.51
2024-02-07T14:48:32.119Z,98.43
2024-02-07T14:50:59.174Z,99.02
2024-02-07T14:53:26.615Z,99.33
2024-02-07T14:55:59.167Z,99.35
2024-02-07T14:58:29.192Z,99.36
2024-02-07T15:00:57.480Z,99.69
2024-02-07T15:03:24.693Z,99.48
2024-02-07T15:05:52.311Z,99.84
2024-02-07T15:08:19.110Z,99.93
2024-02-07T15:10:46.020Z,99.98
2024-02-07T15:13:13.368Z,100.00
2024-02-07T15:15:42.904Z,100.00
2024-02-07T15:18:12.084Z,100.00
2024-02-07T15:20:41.056Z,100.00
2024-02-07T15:23:07.871Z,100.00
2024-02-07T15:25:35.304Z,100.00
2024-02-07T15:28:02.803Z,100.00
2024-02-07T15:30:33.077Z,100.00
2024-02-07T15:32:59.977Z,100.00
2024-02-07T15:35:27.072Z,100.00
2024-02-07T15:37:54.181Z,100.00
2024-02-07T15:40:22.667Z,100.00
2024-02-07T15:42:49.521Z,100.00
2024-02-07T15:45:16.374Z,100.00
2024-02-07T15:47:43.250Z,100.00
2024-02-07T15:50:10.341Z,100.00
2024-02-07T15:52:37.611Z,100.00
2024-02-07T15:55:04.987Z,100.00
2024-02-07T15:57:33.702Z,100.00
2024-02-07T16:00:00.469Z,100.00
2024-02-07T16:02:28.634Z,100.00
2024-02-07T16:04:55.692Z,100.00
2024-02-07T16:07:23.001Z,100.00
2024-02-07T16:09:49.889Z,100.00
2024-02-07T16:12:17.203Z,100.00
2024-02-07T16:14:44.015Z,100.00
2024-02-07T16:17:13.707Z,100.00
2024-02-07T16:19:40.611Z,100.00
2024-02-07T16:22:07.414Z,100.00
2024-02-07T16:24:35.347Z,100.00
2024-02-07T16:27:02.421Z,100.00
2024-02-07T16:29:29.300Z,100.00
2024-02-07T16:31:56.194Z,100.00
2024-02-07T16:34:23.272Z,100.00
2024-02-07T16:36:51.423Z,100.00
2024-02-07T16:39:18.232Z,100.00
2024-02-07T16:41:46.017Z,100.00
2024-02-07T16:44:13.005Z,100.00
2024-02-07T16:46:40.025Z,100.00
2024-02-07T16:49:07.349Z,100.00
2024-02-07T16:51:34.385Z,100.00
2024-02-07T16:54:01.294Z,100.00
2024-02-07T16:56:30.634Z,100.00
2024-02-07T16:58:58.112Z,100.00
2024-02-07T17:01:26.354Z,100.00
2024-02-07T17:03:55.467Z,100.00
2024-02-07T17:06:23.276Z,100.00
2024-02-07T17:08:50.839Z,100.00
2024-02-07T17:11:18.846Z,100.00
2024-02-07T17:13:46.077Z,100.00
2024-02-07T17:16:13.281Z,100.00
2024-02-07T17:18:40.048Z,100.00
2024-02-07T17:21:07.775Z,100.00
2024-02-07T17:23:34.683Z,100.00
2024-02-07T17:26:01.790Z,100.00
2024-02-07T17:28:29.081Z,100.00
2024-02-07T17:30:56.269Z,100.00
2024-02-07T17:33:23.323Z,100.00
2024-02-07T17:35:51.650Z,100.00
2024-02-07T17:38:18.401Z,100.00
2024-02-07T17:40:45.338Z,100.00
2024-02-07T17:43:12.954Z,100.00
2024-02-07T17:45:39.713Z,100.00
2024-02-07T17:48:06.986Z,100.00
2024-02-07T17:50:36.538Z,100.00
2024-02-07T17:53:03.977Z,100.00
2024-02-07T17:55:31.041Z,100.00
2024-02-07T17:57:59.224Z,100.00
2024-02-07T18:00:27.359Z,100.00
2024-02-07T18:02:54.188Z,100.00
2024-02-07T18:05:26.825Z,100.00
2024-02-07T18:07:55.467Z,100.00
2024-02-07T18:10:23.329Z,100.00
2024-02-07T18:12:50.477Z,100.00
2024-02-07T18:15:17.626Z,100.00
2024-02-07T18:17:44.585Z,100.00
2024-02-07T18:20:12.320Z,100.00
2024-02-07T18:22:39.375Z,100.00
2024-02-07T18:25:06.788Z,100.00
2024-02-07T18:27:35.003Z,100.00
2024-02-07T18:30:16.547Z,100.00
2024-02-07T18:32:45.713Z,100.00
2024-02-07T18:35:12.577Z,100.00
2024-02-07T18:37:39.490Z,100.00
2024-02-07T18:40:07.883Z,100.00
2024-02-07T18:42:36.050Z,100.00
2024-02-07T18:45:06.880Z,100.00
2024-02-07T18:47:33.682Z,100.00
2024-02-07T18:50:00.602Z,100.00
2024-02-07T18:52:28.052Z,100.00
2024-02-07T18:54:54.972Z,100.00
2024-02-07T18:57:22.906Z,100.00
2024-02-07T18:59:54.419Z,100.00
2024-02-07T19:02:23.172Z,100.00
2024-02-07T19:04:50.362Z,100.00
2024-02-07T19:07:17.310Z,100.00
2024-02-07T19:09:44.432Z,100.00
2024-02-07T19:12:11.318Z,100.00
2024-02-07T19:14:39.161Z,100.00
2024-02-07T19:17:06.070Z,100.00
2024-02-07T19:19:34.006Z,100.00
2024-02-07T19:22:00.868Z,100.00
2024-02-07T19:24:30.133Z,100.00
2024-02-07T19:26:57.866Z,100.00
2024-02-07T19:29:36.119Z,100.00
2024-02-07T19:32:03.435Z,100.00
2024-02-07T19:34:30.621Z,100.00
2024-02-07T19:36:57.512Z,100.00
2024-02-07T19:39:26.636Z,100.00
2024-02-07T19:41:54.433Z,100.00
2024-02-07T19:44:21.188Z,100.00
2024-02-07T19:46:52.538Z,100.00
2024-02-07T19:49:19.554Z,100.00
2024-02-07T19:51:47.055Z,100.00
2024-02-07T19:54:14.149Z,100.00
2024-02-07T19:56:42.181Z,100.00
2024-02-07T19:59:11.156Z,100.00
2024-02-07T20:01:39.727Z,100.00
2024-02-07T20:04:07.451Z,100.00
2024-02-07T20:06:34.848Z,100.00
2024-02-07T20:09:02.394Z,100.00
2024-02-07T20:11:30.168Z,100.00
2024-02-07T20:13:57.067Z,100.00
2024-02-07T20:16:24.927Z,100.00
2024-02-07T20:18:52.118Z,100.00
2024-02-07T20:21:18.920Z,100.00
2024-02-07T20:23:45.799Z,100.00
2024-02-07T20:26:12.613Z,100.00
2024-02-07T20:28:41.344Z,100.00
2024-02-07T20:31:08.533Z,100.00
2024-02-07T20:33:36.334Z,100.00
2024-02-07T20:36:03.420Z,100.00
2024-02-07T20:38:30.255Z,100.00
2024-02-07T20:40:57.101Z,100.00
2024-02-07T20:43:23.803Z,100.00
2024-02-07T20:45:51.394Z,100.00
2024-02-07T20:48:18.676Z,100.00
2024-02-07T20:50:45.569Z,100.00
2024-02-07T20:53:13.311Z,100.00
2024-02-07T20:55:42.882Z,100.00
2024-02-07T20:58:09.728Z,100.00
2024-02-07T21:00:41.046Z,100.00
2024-02-07T21:03:09.568Z,100.00
2024-02-07T21:05:38.233Z,100.00
2024-02-07T21:08:05.904Z,100.00
2024-02-07T21:10:32.997Z,100.00
2024-02-07T21:12:59.806Z,100.00
2024-02-07T21:15:26.572Z,100.00
2024-02-07T21:17:53.468Z,100.00
2024-02-07T21:20:20.361Z,100.00
2024-02-07T21:22:47.111Z,100.00
2024-02-07T21:25:15.208Z,100.00
2024-02-07T21:27:41.851Z,100.00
2024-02-07T21:30:10.778Z,100.00
2024-02-07T21:32:37.702Z,100.00
2024-02-07T21:35:06.084Z,100.00
2024-02-07T21:37:32.805Z,100.00
2024-02-07T21:40:00.533Z,100.00
2024-02-07T21:42:27.398Z,100.00
2024-02-07T21:44:54.000Z,100.00
2024-02-07T21:47:20.671Z,100.00
2024-02-07T21:49:47.538Z,100.00
2024-02-07T21:52:14.457Z,100.00
2024-02-07T21:54:41.793Z,100.00
2024-02-07T21:57:08.567Z,100.00
2024-02-07T21:59:37.020Z,100.00
2024-02-07T22:02:04.008Z,100.00
2024-02-07T22:04:31.020Z,100.00
2024-02-07T22:06:57.758Z,100.00
2024-02-07T22:09:24.507Z,100.00
2024-02-07T22:11:51.213Z,100.00
2024-02-07T22:14:19.658Z,100.00
2024-02-07T22:16:46.444Z,100.00
2024-02-07T22:19:13.522Z,100.00
2024-02-07T22:21:40.224Z,100.00
2024-02-07T22:24:07.226Z,100.00
2024-02-07T22:26:34.016Z,100.00
2024-02-07T22:29:01.208Z,100.00
2024-02-07T22:31:31.831Z,100.00
2024-02-07T22:33:58.939Z,100.00
2024-02-07T22:36:25.659Z,100.00
2024-02-07T22:38:54.182Z,100.00
2024-02-07T22:41:20.819Z,100.00
2024-02-07T22:43:47.526Z,100.00
2024-02-07T22:46:14.174Z,100.00
2024-02-07T22:48:40.888Z,100.00
2024-02-07T22:51:07.513Z,100.00
2024-02-07T22:53:34.916Z,100.00
2024-02-07T22:56:01.972Z,100.00
2024-02-07T22:58:28.628Z,100.00
2024-02-07T23:00:55.818Z,100.00
2024-02-07T23:03:22.724Z,100.00
2024-02-07T23:05:49.764Z,100.00
2024-02-07T23:08:16.408Z,100.00
2024-02-07T23:10:45.473Z,100.00
2024-02-07T23:13:12.497Z,100.00
2024-02-07T23:15:39.650Z,100.00
2024-02-07T23:18:07.619Z,100.00
2024-02-07T23:20:34.573Z,100.00
2024-02-07T23:23:01.587Z,100.00
2024-02-07T23:25:28.468Z,100.00
2024-02-07T23:27:55.119Z,100.00
2024-02-07T23:30:21.740Z,100.00
2024-02-07T23:32:48.496Z,100.00
2024-02-07T23:35:15.556Z,100.00
2024-02-07T23:37:42.241Z,100.00
2024-02-07T23:40:09.199Z,100.00
2024-02-07T23:42:35.935Z,100.00
2024-02-07T23:45:02.796Z,100.00
2024-02-07T23:47:29.656Z,100.00
2024-02-07T23:49:56.346Z,100.00
2024-02-07T23:52:22.953Z,100.00
2024-02-07T23:54:50.584Z,100.00
2024-02-07T23:57:17.230Z,100.00
2024-02-07T23:59:44.054Z,100.00
